Time;durP1;ratioP1;P1;durP2;ratioP2;P2;SDS_P1;SDS_P2;PMS_P1;PMS_P2;Temp;Humidity;BMP_temperature;BMP_pressure;BME280_temperature;BME280_humidity;BME280_pressure;Samples;Min_cycle;Max_cycle;Signal;HPM_P1;HPM_P2
2023/04/02 00:00:57;;;;;;;5.15;3.38;;;;;;;;;;5073484;28;20506;-60
2023/04/02 00:03:26;;;;;;;10.00;4.72;;;;;;;;;;5073078;28;20311;-60
2023/04/02 00:05:54;;;;;;;4.40;4.03;;;;;;;;;;5073428;28;20620;-60
2023/04/02 00:08:39;;;;;;;4.93;3.95;;;;;;;;;;5073218;28;20197;-60
2023/04/02 00:11:07;;;;;;;3.92;3.08;;;;;;;;;;5073126;28;20197;-60
2023/04/02 00:13:35;;;;;;;3.80;3.50;;;;;;;;;;5073327;28;20192;-60
2023/04/02 00:16:04;;;;;;;5.70;3.42;;;;;;;;;;5073278;28;20193;-60
2023/04/02 00:18:33;;;;;;;4.60;4.20;;;;;;;;;;5073203;28;20556;-60
2023/04/02 00:21:05;;;;;;;5.13;3.95;;;;;;;;;;5073058;28;20196;-60
2023/04/02 00:23:33;;;;;;;4.05;3.70;;;;;;;;;;5072725;28;20300;-60
2023/04/02 00:25:59;;;;;;;4.53;3.88;;;;;;;;;;5073223;28;20192;-60
2023/04/02 00:28:26;;;;;;;4.00;3.63;;;;;;;;;;5073041;28;20190;-60
2023/04/02 00:30:55;;;;;;;3.83;3.45;;;;;;;;;;5072927;28;20192;-60
2023/04/02 00:33:23;;;;;;;5.82;4.15;;;;;;;;;;5072801;28;20674;-60
2023/04/02 00:35:53;;;;;;;4.68;4.15;;;;;;;;;;5072805;28;20190;-60
2023/04/02 00:38:21;;;;;;;3.75;3.15;;;;;;;;;;5073103;28;20192;-60
2023/04/02 00:40:50;;;;;;;5.88;4.25;;;;;;;;;;5072944;28;20287;-60
2023/04/02 00:43:17;;;;;;;4.40;3.20;;;;;;;;;;5072620;28;20188;-60
2023/04/02 00:45:49;;;;;;;4.13;3.72;;;;;;;;;;5072954;28;20189;-61
2023/04/02 00:48:21;;;;;;;3.40;3.10;;;;;;;;;;5072738;28;20186;-60
2023/04/02 00:50:48;;;;;;;5.22;3.70;;;;;;;;;;5072901;28;20200;-61
2023/04/02 00:53:21;;;;;;;3.40;3.10;;;;;;;;;;5072854;28;20272;-61
2023/04/02 00:55:49;;;;;;;3.00;2.70;;;;;;;;;;5072861;28;20203;-60
2023/04/02 00:58:19;;;;;;;5.07;3.45;;;;;;;;;;5072330;28;20235;-60
2023/04/02 01:00:49;;;;;;;5.47;3.33;;;;;;;;;;5072569;28;20224;-61
2023/04/02 01:03:33;;;;;;;8.20;4.55;;;;;;;;;;5072730;28;20189;-60
2023/04/02 01:06:02;;;;;;;3.63;3.28;;;;;;;;;;5072641;28;20651;-60
2023/04/02 01:08:39;;;;;;;4.60;3.53;;;;;;;;;;5072497;28;20193;-60
2023/04/02 01:11:10;;;;;;;4.47;3.72;;;;;;;;;;5072559;28;20188;-60
2023/04/02 01:13:40;;;;;;;8.48;3.90;;;;;;;;;;5072428;28;20284;-60
2023/04/02 01:16:11;;;;;;;8.40;3.70;;;;;;;;;;5072606;28;20244;-60
2023/04/02 01:18:45;;;;;;;7.78;4.32;;;;;;;;;;5072590;28;20303;-60
2023/04/02 01:21:16;;;;;;;3.47;3.20;;;;;;;;;;5072494;28;20500;-60
2023/04/02 01:23:52;;;;;;;4.68;3.92;;;;;;;;;;5072211;28;20190;-60
2023/04/02 01:26:23;;;;;;;3.80;3.25;;;;;;;;;;5072526;28;20190;-61
2023/04/02 01:29:00;;;;;;;4.10;3.80;;;;;;;;;;5072292;28;20248;-60
2023/04/02 01:31:27;;;;;;;3.58;3.13;;;;;;;;;;5072381;28;20211;-60
2023/04/02 01:33:55;;;;;;;5.43;3.80;;;;;;;;;;5072319;28;20287;-60
2023/04/02 01:36:26;;;;;;;4.32;3.40;;;;;;;;;;5072280;28;20218;-60
2023/04/02 01:38:56;;;;;;;3.80;3.50;;;;;;;;;;5072549;28;20200;-60
2023/04/02 01:41:26;;;;;;;6.05;3.40;;;;;;;;;;5072494;28;20715;-60
2023/04/02 01:43:55;;;;;;;5.03;3.35;;;;;;;;;;5072341;28;20214;-60
2023/04/02 01:46:28;;;;;;;3.28;2.97;;;;;;;;;;5072346;28;20192;-60
2023/04/02 01:48:55;;;;;;;4.90;3.60;;;;;;;;;;5072185;28;20663;-60
2023/04/02 01:51:27;;;;;;;3.60;3.00;;;;;;;;;;5072209;28;20189;-61
2023/04/02 01:53:55;;;;;;;3.42;2.90;;;;;;;;;;5072508;28;20276;-60
2023/04/02 01:56:22;;;;;;;3.25;3.00;;;;;;;;;;5072250;28;20201;-60
2023/04/02 01:58:49;;;;;;;5.25;3.25;;;;;;;;;;5072173;28;20591;-60
2023/04/02 02:01:18;;;;;;;3.08;2.88;;;;;;;;;;5071972;28;20188;-60
2023/04/02 02:03:46;;;;;;;5.68;2.67;;;;;;;;;;5071769;28;20231;-60
2023/04/02 02:06:15;;;;;;;3.75;2.63;;;;;;;;;;5072142;28;20224;-60
2023/04/02 02:08:45;;;;;;;3.50;2.83;;;;;;;;;;5073039;28;20202;-60
2023/04/02 02:11:15;;;;;;;2.50;2.30;;;;;;;;;;5075526;28;20547;-60
2023/04/02 02:13:46;;;;;;;9.70;5.13;;;;;;;;;;5075296;28;20230;-60
2023/04/02 02:16:16;;;;;;;3.65;2.67;;;;;;;;;;5075383;28;20211;-60
2023/04/02 02:18:44;;;;;;;2.97;2.45;;;;;;;;;;5075485;28;20196;-60
2023/04/02 02:21:16;;;;;;;2.45;2.25;;;;;;;;;;5075268;28;20329;-60
2023/04/02 02:23:43;;;;;;;3.35;2.80;;;;;;;;;;5075347;28;20221;-60
2023/04/02 02:26:12;;;;;;;2.22;2.03;;;;;;;;;;5075098;28;20220;-60
2023/04/02 02:28:40;;;;;;;3.20;2.90;;;;;;;;;;5075434;28;20193;-60
2023/04/02 02:31:11;;;;;;;2.97;2.58;;;;;;;;;;5075318;28;20283;-60
2023/04/02 02:33:41;;;;;;;4.97;2.50;;;;;;;;;;5075103;28;20610;-60
2023/04/02 02:36:10;;;;;;;4.05;2.67;;;;;;;;;;5075126;28;20189;-60
2023/04/02 02:38:43;;;;;;;3.40;2.67;;;;;;;;;;5075046;28;20270;-60
2023/04/02 02:41:14;;;;;;;3.63;2.55;;;;;;;;;;5075025;28;20265;-60
2023/04/02 02:43:44;;;;;;;2.75;2.45;;;;;;;;;;5074645;28;20687;-61
2023/04/02 02:46:14;;;;;;;3.35;2.80;;;;;;;;;;5074910;28;20221;-60
2023/04/02 02:48:42;;;;;;;2.20;2.10;;;;;;;;;;5074861;28;20192;-60
2023/04/02 02:51:11;;;;;;;3.45;2.85;;;;;;;;;;5074707;28;20203;-60
2023/04/02 02:53:47;;;;;;;4.93;2.30;;;;;;;;;;5074604;28;20189;-60
2023/04/02 02:56:14;;;;;;;3.28;2.50;;;;;;;;;;5074892;28;20195;-60
2023/04/02 02:58:41;;;;;;;2.45;2.28;;;;;;;;;;5074721;28;20203;-60
2023/04/02 03:01:08;;;;;;;5.55;2.72;;;;;;;;;;5074595;28;20715;-60
2023/04/02 03:03:35;;;;;;;2.65;2.20;;;;;;;;;;5074506;28;20269;-60
2023/04/02 03:06:04;;;;;;;2.22;2.00;;;;;;;;;;5074215;28;20216;-60
2023/04/02 03:08:33;;;;;;;2.47;1.67;;;;;;;;;;5074618;28;20229;-60
2023/04/02 03:11:04;;;;;;;3.17;2.15;;;;;;;;;;5074440;28;20194;-60
2023/04/02 03:13:34;;;;;;;2.70;2.20;;;;;;;;;;5074290;28;20220;-60
2023/04/02 03:16:02;;;;;;;3.33;1.73;;;;;;;;;;5074313;28;20227;-60
2023/04/02 03:18:35;;;;;;;2.13;1.92;;;;;;;;;;5074089;28;20192;-60
2023/04/02 03:21:06;;;;;;;6.05;2.53;;;;;;;;;;5074237;28;20299;-60
2023/04/02 03:23:35;;;;;;;4.43;2.08;;;;;;;;;;5074343;28;20207;-60
2023/04/02 03:26:07;;;;;;;3.65;2.20;;;;;;;;;;5074063;28;20228;-60
2023/04/02 03:28:37;;;;;;;1.88;1.77;;;;;;;;;;5074041;28;20196;-60
2023/04/02 03:31:06;;;;;;;2.35;2.17;;;;;;;;;;5074063;28;20193;-60
2023/04/02 03:33:35;;;;;;;2.50;1.80;;;;;;;;;;5074014;28;20189;-60
2023/04/02 03:36:04;;;;;;;2.70;1.95;;;;;;;;;;5074033;28;20201;-60
2023/04/02 03:38:32;;;;;;;3.60;1.70;;;;;;;;;;5073970;28;20201;-60
2023/04/02 03:41:01;;;;;;;3.03;2.10;;;;;;;;;;5073866;28;20197;-61
2023/04/02 03:43:32;;;;;;;5.00;2.20;;;;;;;;;;5073382;28;20738;-60
2023/04/02 03:46:03;;;;;;;3.42;2.00;;;;;;;;;;5073786;28;20315;-60
2023/04/02 03:48:31;;;;;;;4.13;2.10;;;;;;;;;;5074080;28;20289;-60
2023/04/02 03:51:00;;;;;;;3.00;1.80;;;;;;;;;;5073715;28;20276;-61
2023/04/02 03:53:31;;;;;;;3.67;2.15;;;;;;;;;;5073799;28;20284;-60
2023/04/02 03:55:58;;;;;;;3.70;2.05;;;;;;;;;;5073557;28;20625;-60
2023/04/02 03:58:27;;;;;;;3.35;1.70;;;;;;;;;;5073724;28;20196;-60
2023/04/02 04:00:58;;;;;;;5.65;1.65;;;;;;;;;;5073592;28;20280;-60
2023/04/02 04:03:27;;;;;;;4.25;1.88;;;;;;;;;;5073500;28;20193;-60
2023/04/02 04:05:56;;;;;;;2.75;2.28;;;;;;;;;;5073255;28;20402;-60
2023/04/02 04:08:26;;;;;;;3.05;1.65;;;;;;;;;;5073315;28;20192;-60
2023/04/02 04:10:54;;;;;;;2.55;2.35;;;;;;;;;;5073543;28;20193;-60
2023/04/02 04:13:23;;;;;;;2.45;2.25;;;;;;;;;;5073266;28;20190;-60
2023/04/02 04:15:53;;;;;;;2.20;1.95;;;;;;;;;;5073265;28;20196;-60
2023/04/02 04:18:33;;;;;;;3.88;2.00;;;;;;;;;;5073333;28;20529;-60
2023/04/02 04:21:02;;;;;;;3.15;1.80;;;;;;;;;;5073121;28;20225;-60
2023/04/02 04:23:30;;;;;;;2.53;2.30;;;;;;;;;;5073177;28;20193;-60
2023/04/02 04:25:58;;;;;;;3.88;2.20;;;;;;;;;;5073168;28;20304;-60
2023/04/02 04:28:28;;;;;;;2.50;1.90;;;;;;;;;;5073173;28;20241;-60
2023/04/02 04:30:59;;;;;;;2.28;2.08;;;;;;;;;;5072837;28;20186;-60
2023/04/02 04:33:33;;;;;;;2.17;1.98;;;;;;;;;;5072785;28;20649;-60
2023/04/02 04:36:01;;;;;;;3.42;1.65;;;;;;;;;;5073137;28;20193;-60
2023/04/02 04:38:31;;;;;;;1.77;1.58;;;;;;;;;;5072993;28;20196;-60
2023/04/02 04:41:01;;;;;;;2.42;1.48;;;;;;;;;;5073037;28;20197;-60
2023/04/02 04:43:31;;;;;;;2.35;1.98;;;;;;;;;;5072744;28;20190;-60
2023/04/02 04:46:02;;;;;;;1.80;1.70;;;;;;;;;;5072732;28;20714;-61
2023/04/02 04:48:33;;;;;;;3.47;1.85;;;;;;;;;;5073161;28;20204;-60
2023/04/02 04:51:02;;;;;;;2.42;1.88;;;;;;;;;;5072975;28;20196;-60
2023/04/02 04:53:29;;;;;;;2.08;1.40;;;;;;;;;;5072791;28;20196;-60
2023/04/02 04:55:58;;;;;;;2.85;1.33;;;;;;;;;;5072760;28;20185;-60
2023/04/02 04:58:27;;;;;;;4.47;1.30;;;;;;;;;;5072694;28;20773;-61
2023/04/02 05:00:57;;;;;;;4.05;1.27;;;;;;;;;;5072877;28;20192;-60
2023/04/02 05:03:29;;;;;;;3.63;1.92;;;;;;;;;;5072791;28;20562;-60
2023/04/02 05:06:01;;;;;;;2.20;1.40;;;;;;;;;;5072817;28;20216;-60
2023/04/02 05:08:31;;;;;;;1.55;1.13;;;;;;;;;;5072761;28;20707;-60
2023/04/02 05:11:01;;;;;;;4.53;1.75;;;;;;;;;;5072623;28;20277;-60
2023/04/02 05:13:30;;;;;;;1.65;1.35;;;;;;;;;;5072789;28;20285;-60
2023/04/02 05:16:02;;;;;;;1.65;1.40;;;;;;;;;;5072728;28;20222;-61
2023/04/02 05:18:32;;;;;;;5.00;1.80;;;;;;;;;;5072681;28;20193;-60
2023/04/02 05:21:03;;;;;;;7.78;1.92;;;;;;;;;;5072695;28;20240;-60
2023/04/02 05:23:31;;;;;;;2.00;1.58;;;;;;;;;;5072395;28;20194;-60
2023/04/02 05:26:03;;;;;;;1.80;1.40;;;;;;;;;;5072714;28;20221;-60
2023/04/02 05:28:32;;;;;;;2.03;1.80;;;;;;;;;;5072439;28;20652;-60
2023/04/02 05:31:03;;;;;;;1.85;1.38;;;;;;;;;;5072434;28;20193;-61
2023/04/02 05:33:30;;;;;;;1.73;1.33;;;;;;;;;;5072355;28;20659;-60
2023/04/02 05:35:59;;;;;;;4.47;1.70;;;;;;;;;;5072367;28;20210;-60
2023/04/02 05:38:29;;;;;;;3.45;1.60;;;;;;;;;;5072575;28;20319;-60
2023/04/02 05:41:00;;;;;;;1.90;1.65;;;;;;;;;;5072519;28;20190;-60
2023/04/02 05:43:27;;;;;;;3.15;1.75;;;;;;;;;;5072764;28;20207;-60
2023/04/02 05:45:55;;;;;;;4.00;1.80;;;;;;;;;;5076029;28;20227;-60
2023/04/02 05:48:26;;;;;;;3.08;1.52;;;;;;;;;;5075942;28;20197;-60
2023/04/02 05:50:54;;;;;;;4.78;1.42;;;;;;;;;;5076221;28;20254;-60
2023/04/02 05:53:23;;;;;;;3.28;1.40;;;;;;;;;;5075985;28;20189;-60
2023/04/02 05:55:54;;;;;;;2.58;1.65;;;;;;;;;;5075917;28;20199;-60
2023/04/02 05:58:24;;;;;;;3.17;1.25;;;;;;;;;;5075986;28;20226;-60
2023/04/02 06:00:55;;;;;;;4.90;1.38;;;;;;;;;;5075771;28;20199;-60
2023/04/02 06:03:26;;;;;;;3.58;1.42;;;;;;;;;;5075933;28;20222;-60
2023/04/02 06:05:54;;;;;;;3.47;1.45;;;;;;;;;;5075880;28;20244;-60
2023/04/02 06:08:22;;;;;;;3.03;1.50;;;;;;;;;;5075806;28;20204;-61
2023/04/02 06:10:53;;;;;;;2.22;1.30;;;;;;;;;;5075730;28;20193;-60
2023/04/02 06:13:21;;;;;;;3.85;1.35;;;;;;;;;;5075428;28;20193;-60
2023/04/02 06:15:48;;;;;;;2.50;1.67;;;;;;;;;;5075802;28;20271;-60
2023/04/02 06:18:16;;;;;;;2.40;1.42;;;;;;;;;;5075581;28;20362;-60
2023/04/02 06:20:44;;;;;;;2.42;1.35;;;;;;;;;;5075543;28;20211;-61
2023/04/02 06:23:14;;;;;;;1.30;1.20;;;;;;;;;;5075405;28;20277;-60
2023/04/02 06:25:43;;;;;;;3.30;1.52;;;;;;;;;;5075379;28;20280;-60
2023/04/02 06:28:13;;;;;;;5.22;1.30;;;;;;;;;;5075237;28;20280;-61
2023/04/02 06:30:42;;;;;;;3.10;1.10;;;;;;;;;;5075465;28;20189;-60
2023/04/02 06:33:10;;;;;;;5.32;1.30;;;;;;;;;;5075312;28;20661;-60
2023/04/02 06:35:39;;;;;;;3.90;1.40;;;;;;;;;;5075292;28;20200;-60
2023/04/02 06:38:07;;;;;;;5.88;1.55;;;;;;;;;;5075126;28;20276;-60
2023/04/02 06:40:37;;;;;;;3.10;1.60;;;;;;;;;;5074951;28;20605;-61
2023/04/02 06:43:08;;;;;;;15.43;2.50;;;;;;;;;;5075236;28;20202;-60
2023/04/02 06:45:40;;;;;;;6.25;1.60;;;;;;;;;;5074756;28;20258;-61
2023/04/02 06:48:12;;;;;;;2.55;1.23;;;;;;;;;;5075104;28;20196;-60
2023/04/02 06:50:43;;;;;;;1.35;1.10;;;;;;;;;;5075017;28;20197;-60
2023/04/02 06:53:18;;;;;;;2.55;1.10;;;;;;;;;;5074835;28;20196;-60
2023/04/02 06:55:46;;;;;;;3.38;1.20;;;;;;;;;;5074550;28;20206;-61
2023/04/02 06:58:14;;;;;;;2.80;1.75;;;;;;;;;;5074810;28;20196;-61
2023/04/02 07:00:42;;;;;;;2.05;1.20;;;;;;;;;;5074767;28;20590;-61
2023/04/02 07:03:16;;;;;;;2.58;1.33;;;;;;;;;;5074665;28;20605;-61
2023/04/02 07:05:43;;;;;;;4.13;1.55;;;;;;;;;;5074502;28;20220;-60
2023/04/02 07:08:10;;;;;;;1.75;1.20;;;;;;;;;;5074717;28;20279;-60
2023/04/02 07:10:37;;;;;;;3.63;1.40;;;;;;;;;;5074665;28;20284;-60
2023/04/02 07:13:04;;;;;;;2.33;1.40;;;;;;;;;;5074513;28;20649;-60
2023/04/02 07:15:32;;;;;;;3.35;1.20;;;;;;;;;;5074390;28;20193;-60
2023/04/02 07:17:59;;;;;;;2.03;1.73;;;;;;;;;;5074305;28;20696;-60
2023/04/02 07:20:30;;;;;;;2.67;1.30;;;;;;;;;;5074509;28;20617;-60
2023/04/02 07:22:57;;;;;;;5.68;1.50;;;;;;;;;;5074422;28;20200;-60
2023/04/02 07:25:24;;;;;;;4.30;1.60;;;;;;;;;;5074075;28;20281;-60
2023/04/02 07:27:51;;;;;;;2.17;1.40;;;;;;;;;;5074215;28;20288;-60
2023/04/02 07:30:19;;;;;;;3.25;1.13;;;;;;;;;;5074111;28;20192;-60
2023/04/02 07:32:46;;;;;;;5.80;1.45;;;;;;;;;;5073974;28;20645;-60
2023/04/02 07:35:13;;;;;;;3.28;1.52;;;;;;;;;;5073887;28;20616;-60
2023/04/02 07:37:41;;;;;;;3.47;1.17;;;;;;;;;;5074076;28;20194;-61
2023/04/02 07:40:15;;;;;;;2.58;1.23;;;;;;;;;;5074030;28;20591;-60
2023/04/02 07:42:42;;;;;;;1.50;1.10;;;;;;;;;;5073902;28;20612;-60
2023/04/02 07:45:10;;;;;;;2.80;2.13;;;;;;;;;;5073567;28;20228;-60
2023/04/02 07:47:37;;;;;;;3.85;1.50;;;;;;;;;;5073777;28;20214;-60
2023/04/02 07:50:04;;;;;;;2.55;1.50;;;;;;;;;;5073819;28;20284;-60
2023/04/02 07:52:31;;;;;;;2.75;1.48;;;;;;;;;;5073611;28;20716;-60
2023/04/02 07:55:00;;;;;;;2.40;1.35;;;;;;;;;;5073665;28;20193;-60
2023/04/02 07:57:27;;;;;;;3.13;1.58;;;;;;;;;;5073547;28;20194;-60
2023/04/02 07:59:55;;;;;;;3.83;1.23;;;;;;;;;;5073366;28;20641;-60
2023/04/02 08:02:22;;;;;;;2.15;1.23;;;;;;;;;;5073615;28;20192;-60
2023/04/02 08:04:50;;;;;;;4.75;1.15;;;;;;;;;;5073435;28;20559;-61
2023/04/02 08:07:17;;;;;;;3.95;1.90;;;;;;;;;;5072569;28;20573;-61
2023/04/02 08:09:44;;;;;;;4.07;1.65;;;;;;;;;;5073338;28;20599;-60
2023/04/02 08:12:14;;;;;;;3.65;1.17;;;;;;;;;;5073173;28;20196;-60
2023/04/02 08:14:41;;;;;;;2.00;1.20;;;;;;;;;;5073428;28;20550;-60
2023/04/02 08:17:08;;;;;;;3.38;1.40;;;;;;;;;;5073344;28;20200;-60
2023/04/02 08:19:35;;;;;;;1.10;1.00;;;;;;;;;;5073265;28;20194;-60
2023/04/02 08:22:02;;;;;;;3.43;1.60;;;;;;;;;;5073191;28;20444;-60
2023/04/02 08:24:29;;;;;;;2.72;1.40;;;;;;;;;;5072924;28;20539;-60
2023/04/02 08:26:56;;;;;;;2.70;1.30;;;;;;;;;;5072910;28;20304;-60
2023/04/02 08:29:24;;;;;;;2.67;1.10;;;;;;;;;;5073251;28;20448;-60
2023/04/02 08:31:51;;;;;;;1.05;0.90;;;;;;;;;;5073130;28;20189;-60
2023/04/02 08:34:18;;;;;;;4.03;0.98;;;;;;;;;;5072989;28;20225;-60
2023/04/02 08:36:45;;;;;;;1.93;1.27;;;;;;;;;;5072876;28;20284;-60
2023/04/02 08:39:12;;;;;;;4.43;1.50;;;;;;;;;;5072829;28;20933;-60
2023/04/02 08:41:42;;;;;;;3.65;1.08;;;;;;;;;;5073104;28;20197;-60
2023/04/02 08:44:12;;;;;;;3.60;1.23;;;;;;;;;;5072835;28;20253;-60
2023/04/02 08:46:44;;;;;;;2.40;1.17;;;;;;;;;;5072826;28;20296;-60
2023/04/02 08:49:13;;;;;;;1.92;1.00;;;;;;;;;;5072965;28;20189;-60
2023/04/02 08:51:40;;;;;;;1.38;1.00;;;;;;;;;;5072807;28;20675;-61
2023/04/02 08:54:13;;;;;;;1.38;1.00;;;;;;;;;;5072691;28;20203;-60
2023/04/02 08:56:40;;;;;;;2.35;1.40;;;;;;;;;;5072977;28;20683;-60
2023/04/02 08:59:10;;;;;;;1.88;1.13;;;;;;;;;;5072871;28;20590;-60
2023/04/02 09:01:41;;;;;;;3.35;1.30;;;;;;;;;;5072786;28;20635;-60
2023/04/02 09:04:14;;;;;;;2.78;1.00;;;;;;;;;;5072692;28;20213;-60
2023/04/02 09:06:42;;;;;;;2.80;1.55;;;;;;;;;;5072851;28;20223;-60
2023/04/02 09:09:10;;;;;;;1.45;1.15;;;;;;;;;;5072797;28;20193;-60
2023/04/02 09:11:42;;;;;;;3.92;1.65;;;;;;;;;;5072803;28;20286;-60
2023/04/02 09:14:13;;;;;;;1.40;1.20;;;;;;;;;;5072625;28;20190;-60
2023/04/02 09:16:42;;;;;;;2.47;2.28;;;;;;;;;;5072461;28;20293;-60
2023/04/02 09:19:17;;;;;;;3.00;1.30;;;;;;;;;;5075954;28;20205;-60
2023/04/02 09:21:46;;;;;;;3.92;2.03;;;;;;;;;;5076614;28;20291;-60
2023/04/02 09:24:13;;;;;;;2.38;1.15;;;;;;;;;;5076497;28;20628;-60
2023/04/02 09:26:40;;;;;;;1.38;1.27;;;;;;;;;;5076495;28;20221;-60
2023/04/02 09:29:20;;;;;;;2.63;1.30;;;;;;;;;;5076348;28;20186;-59
2023/04/02 09:31:50;;;;;;;5.07;1.60;;;;;;;;;;5076609;28;20276;-61
2023/04/02 09:34:31;;;;;;;2.80;1.10;;;;;;;;;;5076391;28;20281;-61
2023/04/02 09:36:58;;;;;;;1.90;1.30;;;;;;;;;;5076277;28;20185;-60
2023/04/02 09:39:25;;;;;;;3.22;1.15;;;;;;;;;;5076196;28;20297;-60
2023/04/02 09:41:52;;;;;;;2.97;1.45;;;;;;;;;;5076085;28;20186;-60
2023/04/02 09:44:21;;;;;;;2.95;1.20;;;;;;;;;;5076010;28;20684;-61
2023/04/02 09:46:49;;;;;;;4.03;1.30;;;;;;;;;;5075903;28;20558;-60
2023/04/02 09:49:17;;;;;;;3.55;1.55;;;;;;;;;;5076112;28;20194;-60
2023/04/02 09:51:46;;;;;;;4.13;1.58;;;;;;;;;;5075915;28;20272;-60
2023/04/02 09:54:15;;;;;;;2.45;1.20;;;;;;;;;;5075732;28;20235;-60
2023/04/02 09:56:59;;;;;;;5.13;1.50;;;;;;;;;;5075789;28;20200;-61
2023/04/02 09:59:26;;;;;;;1.75;1.30;;;;;;;;;;5075995;28;20190;-60
2023/04/02 10:01:59;;;;;;;2.42;1.70;;;;;;;;;;5075764;28;20228;-60
2023/04/02 10:04:34;;;;;;;1.77;1.00;;;;;;;;;;5075698;28;20233;-60
2023/04/02 10:07:03;;;;;;;7.72;1.38;;;;;;;;;;5075461;28;20507;-60
2023/04/02 10:09:31;;;;;;;1.80;1.00;;;;;;;;;;5075827;28;20186;-60
2023/04/02 10:11:59;;;;;;;2.60;1.07;;;;;;;;;;5075683;28;20190;-60
2023/04/02 10:14:28;;;;;;;3.37;1.50;;;;;;;;;;5075660;28;20768;-61
2023/04/02 10:16:57;;;;;;;3.25;1.35;;;;;;;;;;5075498;28;20542;-60
2023/04/02 10:19:26;;;;;;;3.03;1.30;;;;;;;;;;5075361;28;20282;-61
2023/04/02 10:21:54;;;;;;;6.83;1.53;;;;;;;;;;5075567;28;20456;-60
2023/04/02 10:24:23;;;;;;;2.80;1.20;;;;;;;;;;5075445;28;20452;-60
2023/04/02 10:26:55;;;;;;;4.27;1.23;;;;;;;;;;5075425;28;20511;-61
2023/04/02 10:29:45;;;;;;;1.83;1.23;;;;;;;;;;5074451;28;20451;-61
2023/04/02 10:32:15;;;;;;;3.73;1.47;;;;;;;;;;5064810;28;20531;-61
2023/04/02 10:34:44;;;;;;;4.13;1.77;;;;;;;;;;5075218;28;20535;-60
2023/04/02 10:37:21;;;;;;;1.97;1.30;;;;;;;;;;5075287;28;20461;-60
2023/04/02 10:39:52;;;;;;;2.10;1.53;;;;;;;;;;5075235;28;20454;-61
2023/04/02 10:42:23;;;;;;;3.30;1.40;;;;;;;;;;5074938;28;20444;-61
2023/04/02 10:44:53;;;;;;;3.80;1.20;;;;;;;;;;5074892;28;20861;-61
2023/04/02 10:47:26;;;;;;;2.17;1.13;;;;;;;;;;5075024;28;20490;-61
2023/04/02 10:49:58;;;;;;;1.50;1.40;;;;;;;;;;5074998;28;20459;-60
2023/04/02 10:52:27;;;;;;;4.23;1.50;;;;;;;;;;5074908;28;20893;-60
2023/04/02 10:54:56;;;;;;;2.30;1.20;;;;;;;;;;5074499;28;20447;-61
2023/04/02 10:57:29;;;;;;;1.40;1.30;;;;;;;;;;5074966;28;20459;-61
2023/04/02 10:59:59;;;;;;;2.03;1.40;;;;;;;;;;5074959;28;20239;-61
2023/04/02 11:02:31;;;;;;;2.43;1.27;;;;;;;;;;5074713;28;20888;-61
2023/04/02 11:05:00;;;;;;;1.70;1.40;;;;;;;;;;5074580;28;20486;-61
2023/04/02 11:07:29;;;;;;;4.07;1.23;;;;;;;;;;5074725;28;20570;-60
2023/04/02 11:09:59;;;;;;;1.93;1.40;;;;;;;;;;5074678;28;20448;-60
2023/04/02 11:12:32;;;;;;;2.80;1.53;;;;;;;;;;5074665;28;20455;-61
2023/04/02 11:14:59;;;;;;;1.63;1.30;;;;;;;;;;5074485;28;20451;-60
2023/04/02 11:17:26;;;;;;;3.28;1.38;;;;;;;;;;5074453;28;20435;-60
2023/04/02 11:19:54;;;;;;;4.93;1.20;;;;;;;;;;5074239;28;20189;-60
2023/04/02 11:22:22;;;;;;;5.72;1.60;;;;;;;;;;5074457;28;20448;-61
2023/04/02 11:24:50;;;;;;;3.10;1.60;;;;;;;;;;5074384;28;20190;-60
2023/04/02 11:27:28;;;;;;;1.87;1.43;;;;;;;;;;5074182;28;20551;-60
2023/04/02 11:30:02;;;;;;;2.53;1.57;;;;;;;;;;5074069;28;20877;-61
2023/04/02 11:32:35;;;;;;;2.00;1.50;;;;;;;;;;5074407;28;20449;-61
2023/04/02 11:35:26;;;;;;;2.60;1.40;;;;;;;;;;5074159;28;20497;-61
2023/04/02 11:37:54;;;;;;;4.27;1.70;;;;;;;;;;5074213;28;20194;-61
2023/04/02 11:40:39;;;;;;;2.10;1.80;;;;;;;;;;5073862;28;20452;-60
2023/04/02 11:43:21;;;;;;;1.85;1.60;;;;;;;;;;5073905;28;20542;-61
2023/04/02 11:45:53;;;;;;;3.00;1.47;;;;;;;;;;5073558;28;20185;-60
2023/04/02 11:48:27;;;;;;;5.77;1.90;;;;;;;;;;5073770;28;20484;-61
2023/04/02 11:50:55;;;;;;;2.17;1.80;;;;;;;;;;5073620;28;20535;-61
2023/04/02 11:53:23;;;;;;;1.83;1.63;;;;;;;;;;5073811;28;20201;-60
2023/04/02 11:56:05;;;;;;;7.43;1.90;;;;;;;;;;5073755;28;20479;-61
2023/04/02 11:58:36;;;;;;;4.63;2.17;;;;;;;;;;5073407;28;20984;-60
2023/04/02 12:01:22;;;;;;;2.63;2.03;;;;;;;;;;5073526;28;20443;-60
2023/04/02 12:04:06;;;;;;;2.57;1.60;;;;;;;;;;5073671;28;20221;-61
2023/04/02 12:06:38;;;;;;;2.03;1.20;;;;;;;;;;5073725;28;20447;-60
2023/04/02 12:09:11;;;;;;;1.57;1.33;;;;;;;;;;5073445;28;20507;-61
2023/04/02 12:11:39;;;;;;;3.50;1.70;;;;;;;;;;5073432;28;20483;-61
2023/04/02 12:14:27;;;;;;;1.90;1.30;;;;;;;;;;5073516;28;20441;-61
2023/04/02 12:16:54;;;;;;;3.30;1.50;;;;;;;;;;5073459;28;20440;-61
2023/04/02 12:19:23;;;;;;;1.73;1.40;;;;;;;;;;5073372;28;20454;-61
2023/04/02 12:21:51;;;;;;;4.63;1.70;;;;;;;;;;5073317;28;20452;-61
2023/04/02 12:24:21;;;;;;;3.90;1.70;;;;;;;;;;5073091;28;20455;-60
2023/04/02 12:26:48;;;;;;;1.33;1.23;;;;;;;;;;5073278;28;20810;-61
2023/04/02 12:29:25;;;;;;;3.00;1.53;;;;;;;;;;5073032;28;20887;-61
2023/04/02 12:31:53;;;;;;;2.10;1.90;;;;;;;;;;5073218;28;20451;-61
2023/04/02 12:34:20;;;;;;;6.60;1.87;;;;;;;;;;5073062;28;20452;-61
2023/04/02 12:36:56;;;;;;;3.27;1.30;;;;;;;;;;5072992;28;20956;-61
2023/04/02 12:39:23;;;;;;;3.87;2.10;;;;;;;;;;5073129;28;20491;-61
2023/04/02 12:41:50;;;;;;;5.93;1.87;;;;;;;;;;5073165;28;20804;-61
2023/04/02 12:44:18;;;;;;;5.60;1.60;;;;;;;;;;5072727;28;20526;-61
2023/04/02 12:46:46;;;;;;;3.00;2.33;;;;;;;;;;5072834;28;20448;-61
2023/04/02 12:49:20;;;;;;;3.93;1.90;;;;;;;;;;5072675;28;20545;-61
2023/04/02 12:51:47;;;;;;;2.73;1.30;;;;;;;;;;5072936;28;20456;-60
2023/04/02 12:54:18;;;;;;;1.43;1.30;;;;;;;;;;5072719;28;20455;-61
2023/04/02 12:56:45;;;;;;;2.27;1.30;;;;;;;;;;5072867;28;20534;-61
2023/04/02 12:59:20;;;;;;;3.80;1.80;;;;;;;;;;5072826;28;20454;-61
2023/04/02 13:01:56;;;;;;;4.10;1.63;;;;;;;;;;5072675;28;20451;-61
2023/04/02 13:04:22;;;;;;;1.40;1.30;;;;;;;;;;5073224;28;20452;-60
2023/04/02 13:06:53;;;;;;;4.60;1.67;;;;;;;;;;5072900;28;20448;-61
2023/04/02 13:09:34;;;;;;;4.10;1.27;;;;;;;;;;5072638;28;20484;-61
2023/04/02 13:12:01;;;;;;;2.80;1.37;;;;;;;;;;5072682;28;20509;-61
2023/04/02 13:14:29;;;;;;;1.90;1.50;;;;;;;;;;5072551;28;20516;-60
2023/04/02 13:16:56;;;;;;;4.20;1.43;;;;;;;;;;5072824;28;21038;-60
2023/04/02 13:19:28;;;;;;;2.90;1.40;;;;;;;;;;5072787;28;20509;-60
2023/04/02 13:21:56;;;;;;;2.20;1.20;;;;;;;;;;5072478;28;20536;-61
2023/04/02 13:24:24;;;;;;;3.07;1.30;;;;;;;;;;5072376;28;20478;-60
2023/04/02 13:26:54;;;;;;;1.67;1.20;;;;;;;;;;5072451;28;21001;-60
2023/04/02 13:29:25;;;;;;;2.93;1.40;;;;;;;;;;5072584;28;20937;-60
2023/04/02 13:31:53;;;;;;;2.33;1.23;;;;;;;;;;5072532;28;20498;-60
2023/04/02 13:34:20;;;;;;;1.63;1.10;;;;;;;;;;5072415;28;20456;-60
2023/04/02 13:36:47;;;;;;;1.50;1.20;;;;;;;;;;5072505;28;20452;-60
2023/04/02 13:39:15;;;;;;;2.57;1.03;;;;;;;;;;5072335;28;20451;-61
2023/04/02 13:41:42;;;;;;;3.80;1.43;;;;;;;;;;5072576;28;20484;-60
2023/04/02 13:44:15;;;;;;;2.50;1.30;;;;;;;;;;5072329;28;20657;-60
2023/04/02 13:46:44;;;;;;;4.00;1.27;;;;;;;;;;5072291;28;21001;-60
2023/04/02 13:49:11;;;;;;;2.30;1.17;;;;;;;;;;5072170;28;20488;-60
2023/04/02 13:51:39;;;;;;;2.80;1.20;;;;;;;;;;5072145;28;20886;-60
2023/04/02 13:54:07;;;;;;;3.00;1.20;;;;;;;;;;5072195;28;20448;-60
2023/04/02 13:56:35;;;;;;;3.13;1.50;;;;;;;;;;5072387;28;20452;-60
2023/04/02 13:59:01;;;;;;;2.30;1.03;;;;;;;;;;5072288;28;20440;-60
2023/04/02 14:01:28;;;;;;;3.23;1.20;;;;;;;;;;5072243;28;20447;-60
2023/04/02 14:03:57;;;;;;;1.17;0.90;;;;;;;;;;5072125;28;20450;-60
2023/04/02 14:06:30;;;;;;;4.20;1.03;;;;;;;;;;5075681;28;20482;-61
2023/04/02 14:09:02;;;;;;;2.00;1.50;;;;;;;;;;5075922;28;20479;-60
2023/04/02 14:11:33;;;;;;;2.40;1.10;;;;;;;;;;5075845;28;20474;-60
2023/04/02 14:14:06;;;;;;;2.80;1.10;;;;;;;;;;5075706;28;20458;-60
2023/04/02 14:16:42;;;;;;;4.83;1.90;;;;;;;;;;5075507;28;20538;-60
2023/04/02 14:19:17;;;;;;;1.97;1.40;;;;;;;;;;5075585;28;20454;-60
2023/04/02 14:21:51;;;;;;;2.67;1.27;;;;;;;;;;5075701;28;20473;-60
2023/04/02 14:24:19;;;;;;;1.90;1.10;;;;;;;;;;5075516;28;20539;-60
2023/04/02 14:26:52;;;;;;;3.43;1.30;;;;;;;;;;5075379;28;20470;-60
2023/04/02 14:29:22;;;;;;;2.63;1.43;;;;;;;;;;5075203;28;20486;-60
2023/04/02 14:31:55;;;;;;;1.43;0.93;;;;;;;;;;5075506;28;20484;-60
2023/04/02 14:34:28;;;;;;;2.73;0.90;;;;;;;;;;5075207;28;20447;-60
2023/04/02 14:37:00;;;;;;;2.83;1.77;;;;;;;;;;5075169;28;20531;-60
2023/04/02 14:39:32;;;;;;;3.50;1.20;;;;;;;;;;5075099;28;20611;-60
2023/04/02 14:42:01;;;;;;;3.00;0.70;;;;;;;;;;5075043;28;20447;-60
2023/04/02 14:44:30;;;;;;;2.90;1.30;;;;;;;;;;5074959;28;20876;-60
2023/04/02 14:47:01;;;;;;;2.50;1.17;;;;;;;;;;5075096;28;20482;-60
2023/04/02 14:49:32;;;;;;;1.40;0.90;;;;;;;;;;5075194;28;20484;-60
2023/04/02 14:52:01;;;;;;;1.97;1.10;;;;;;;;;;5074943;28;20539;-60
2023/04/02 14:54:32;;;;;;;3.23;1.73;;;;;;;;;;5074788;28;20458;-61
2023/04/02 14:57:01;;;;;;;4.93;1.60;;;;;;;;;;5075020;28;20458;-60
2023/04/02 14:59:30;;;;;;;1.93;1.60;;;;;;;;;;5074922;28;20447;-60